Bluejacket, Oklahoma
Current Conditions -  °F | °C
As of 8:55 AM on Wednesday 22 Oct 2014 (Local Time) from KGMJ Reporting Station
Scattered Clouds Scattered Clouds  
Wind Chill: 57°   Ceiling: Unl
Heat Index: 57°   Visibility: 10mi
Dew Point: 57°   Wind: 5mph
Humidity: 100%   Direction: 90°E
Pressure: 30.21"   Gusts: NA
Location:  36.8°N, 95.07°W
Report Text: KGMJ 221355Z AUTO 09004KT 10SM SCT060 14/14 A3021 RMK AO2
Loading
Personal Weather Stations






























Interactive Weather Map New forecast layout! Learn more

10-Day Weather Forecast

Advertisements
Track Severe Weather on mobile